sensor_id;sensor_type;location;lat;lon;timestamp;pressure;altitude;pressure_sealevel;temperature;humidity
61039;BME280;46919;45.816;3.104;2022-11-12T00:00:21;99106.81;;;6.46;100.00
61039;BME280;46919;45.816;3.104;2022-11-12T00:02:46;99098.59;;;6.40;100.00
61039;BME280;46919;45.816;3.104;2022-11-12T00:05:12;99097.25;;;6.35;100.00
61039;BME280;46919;45.816;3.104;2022-11-12T00:07:37;99093.72;;;6.43;100.00
61039;BME280;46919;45.816;3.104;2022-11-12T00:10:03;99100.78;;;6.44;100.00
61039;BME280;46919;45.816;3.104;2022-11-12T00:12:29;99091.22;;;6.42;100.00
61039;BME280;46919;45.816;3.104;2022-11-12T00:14:54;99100.78;;;6.36;100.00
61039;BME280;46919;45.816;3.104;2022-11-12T00:17:20;99106.84;;;6.30;100.00
61039;BME280;46919;45.816;3.104;2022-11-12T00:19:45;99103.13;;;6.31;100.00
61039;BME280;46919;45.816;3.104;2022-11-12T00:22:10;99104.31;;;6.28;100.00
61039;BME280;46919;45.816;3.104;2022-11-12T00:24:36;99110.34;;;6.30;100.00
61039;BME280;46919;45.816;3.104;2022-11-12T00:27:01;99105.31;;;6.27;100.00
61039;BME280;46919;45.816;3.104;2022-11-12T00:29:26;99108.31;;;6.16;100.00
61039;BME280;46919;45.816;3.104;2022-11-12T00:31:52;99108.31;;;6.16;100.00
61039;BME280;46919;45.816;3.104;2022-11-12T00:34:17;99111.34;;;6.21;100.00
61039;BME280;46919;45.816;3.104;2022-11-12T00:36:43;99119.75;;;6.34;100.00
61039;BME280;46919;45.816;3.104;2022-11-12T00:39:09;99117.22;;;6.25;100.00
61039;BME280;46919;45.816;3.104;2022-11-12T00:41:34;99114.84;;;6.13;100.00
61039;BME280;46919;45.816;3.104;2022-11-12T00:43:59;99109.00;;;6.10;100.00
61039;BME280;46919;45.816;3.104;2022-11-12T00:46:25;99108.00;;;6.11;100.00
61039;BME280;46919;45.816;3.104;2022-11-12T00:48:50;99105.31;;;6.19;100.00
61039;BME280;46919;45.816;3.104;2022-11-12T00:51:15;99099.94;;;6.19;100.00
61039;BME280;46919;45.816;3.104;2022-11-12T00:53:41;99107.66;;;6.22;100.00
61039;BME280;46919;45.816;3.104;2022-11-12T00:56:07;99110.19;;;6.24;100.00
61039;BME280;46919;45.816;3.104;2022-11-12T00:58:34;99111.69;;;6.18;100.00
61039;BME280;46919;45.816;3.104;2022-11-12T01:01:11;99118.22;;;6.15;100.00
61039;BME280;46919;45.816;3.104;2022-11-12T01:03:38;99113.69;;;6.16;100.00
61039;BME280;46919;45.816;3.104;2022-11-12T01:06:06;99111.50;;;6.20;100.00
61039;BME280;46919;45.816;3.104;2022-11-12T01:08:33;99104.97;;;6.14;100.00
61039;BME280;46919;45.816;3.104;2022-11-12T01:11:10;99104.44;;;6.10;100.00
61039;BME280;46919;45.816;3.104;2022-11-12T01:13:38;99104.44;;;6.02;100.00
61039;BME280;46919;45.816;3.104;2022-11-12T01:16:18;99098.25;;;6.10;100.00
61039;BME280;46919;45.816;3.104;2022-11-12T01:18:44;99087.69;;;6.08;100.00
61039;BME280;46919;45.816;3.104;2022-11-12T01:21:11;99085.81;;;6.09;100.00
61039;BME280;46919;45.816;3.104;2022-11-12T01:23:38;99085.81;;;6.09;100.00
61039;BME280;46919;45.816;3.104;2022-11-12T01:26:05;99086.34;;;6.12;100.00
61039;BME280;46919;45.816;3.104;2022-11-12T01:28:31;99085.16;;;6.07;100.00
61039;BME280;46919;45.816;3.104;2022-11-12T01:30:56;99073.75;;;6.05;100.00
61039;BME280;46919;45.816;3.104;2022-11-12T01:33:22;99072.38;;;5.92;100.00
61039;BME280;46919;45.816;3.104;2022-11-12T01:35:47;99081.91;;;5.87;100.00
61039;BME280;46919;45.816;3.104;2022-11-12T01:38:12;99070.69;;;5.83;100.00
61039;BME280;46919;45.816;3.104;2022-11-12T01:40:38;99066.81;;;5.77;100.00
61039;BME280;46919;45.816;3.104;2022-11-12T01:43:09;99065.97;;;5.77;100.00
61039;BME280;46919;45.816;3.104;2022-11-12T01:45:41;99073.69;;;5.72;100.00
61039;BME280;46919;45.816;3.104;2022-11-12T01:48:19;99071.00;;;5.72;100.00
61039;BME280;46919;45.816;3.104;2022-11-12T01:50:49;99062.94;;;5.72;100.00
61039;BME280;46919;45.816;3.104;2022-11-12T01:53:15;99056.75;;;5.71;100.00
61039;BME280;46919;45.816;3.104;2022-11-12T01:55:41;99067.28;;;5.65;100.00
61039;BME280;46919;45.816;3.104;2022-11-12T01:58:11;99077.00;;;5.66;100.00
61039;BME280;46919;45.816;3.104;2022-11-12T02:00:39;99061.41;;;5.61;100.00
61039;BME280;46919;45.816;3.104;2022-11-12T02:03:09;99066.28;;;5.57;100.00
61039;BME280;46919;45.816;3.104;2022-11-12T02:05:37;99060.25;;;5.55;100.00
61039;BME280;46919;45.816;3.104;2022-11-12T02:08:04;99055.72;;;5.56;100.00
61039;BME280;46919;45.816;3.104;2022-11-12T02:10:31;99051.50;;;5.53;100.00
61039;BME280;46919;45.816;3.104;2022-11-12T02:12:58;99050.19;;;5.57;100.00
61039;BME280;46919;45.816;3.104;2022-11-12T02:15:42;99057.03;;;5.52;100.00
61039;BME280;46919;45.816;3.104;2022-11-12T02:18:08;99059.19;;;5.40;100.00
61039;BME280;46919;45.816;3.104;2022-11-12T02:20:35;99054.47;;;5.34;100.00
61039;BME280;46919;45.816;3.104;2022-11-12T02:23:01;99047.75;;;5.30;100.00
61039;BME280;46919;45.816;3.104;2022-11-12T02:25:27;99048.75;;;5.29;100.00
61039;BME280;46919;45.816;3.104;2022-11-12T02:27:53;99049.44;;;5.39;100.00
61039;BME280;46919;45.816;3.104;2022-11-12T02:32:59;99035.84;;;5.24;100.00
61039;BME280;46919;45.816;3.104;2022-11-12T02:35:25;99038.19;;;5.19;100.00
61039;BME280;46919;45.816;3.104;2022-11-12T02:37:51;99035.81;;;5.16;100.00
61039;BME280;46919;45.816;3.104;2022-11-12T02:40:16;99028.94;;;5.13;100.00
61039;BME280;46919;45.816;3.104;2022-11-12T02:42:42;99038.84;;;5.21;100.00
61039;BME280;46919;45.816;3.104;2022-11-12T02:45:07;99029.44;;;5.17;100.00
61039;BME280;46919;45.816;3.104;2022-11-12T02:47:33;99018.84;;;5.07;100.00
61039;BME280;46919;45.816;3.104;2022-11-12T02:49:58;99028.56;;;5.00;100.00
61039;BME280;46919;45.816;3.104;2022-11-12T02:52:24;99030.38;;;4.99;100.00
61039;BME280;46919;45.816;3.104;2022-11-12T02:54:49;99025.56;;;5.03;100.00
61039;BME280;46919;45.816;3.104;2022-11-12T02:57:14;99031.16;;;4.92;100.00
61039;BME280;46919;45.816;3.104;2022-11-12T02:59:40;99030.81;;;4.86;100.00
61039;BME280;46919;45.816;3.104;2022-11-12T03:02:05;99022.94;;;4.85;100.00
61039;BME280;46919;45.816;3.104;2022-11-12T03:04:30;99028.31;;;4.85;100.00
61039;BME280;46919;45.816;3.104;2022-11-12T03:06:56;99024.63;;;4.86;100.00
61039;BME280;46919;45.816;3.104;2022-11-12T03:09:21;99030.47;;;4.81;100.00
61039;BME280;46919;45.816;3.104;2022-11-12T03:11:46;99031.84;;;4.85;100.00
61039;BME280;46919;45.816;3.104;2022-11-12T03:14:12;99036.38;;;4.93;100.00
61039;BME280;46919;45.816;3.104;2022-11-12T03:16:37;99026.47;;;4.85;100.00
61039;BME280;46919;45.816;3.104;2022-11-12T03:19:03;99028.84;;;4.88;100.00
61039;BME280;46919;45.816;3.104;2022-11-12T03:21:28;99020.97;;;4.87;100.00
61039;BME280;46919;45.816;3.104;2022-11-12T03:23:53;99019.59;;;4.83;100.00
61039;BME280;46919;45.816;3.104;2022-11-12T03:26:19;99014.25;;;4.83;100.00
61039;BME280;46919;45.816;3.104;2022-11-12T03:28:44;99026.31;;;4.87;100.00
61039;BME280;46919;45.816;3.104;2022-11-12T03:31:09;99019.44;;;4.84;100.00
61039;BME280;46919;45.816;3.104;2022-11-12T03:33:36;99023.50;;;4.88;100.00
61039;BME280;46919;45.816;3.104;2022-11-12T03:36:03;99018.28;;;4.87;100.00
61039;BME280;46919;45.816;3.104;2022-11-12T03:38:28;99016.44;;;4.87;100.00
61039;BME280;46919;45.816;3.104;2022-11-12T03:40:54;99027.50;;;4.93;100.00
61039;BME280;46919;45.816;3.104;2022-11-12T03:43:19;99024.00;;;4.92;100.00
61039;BME280;46919;45.816;3.104;2022-11-12T03:45:44;99020.97;;;4.87;100.00
61039;BME280;46919;45.816;3.104;2022-11-12T03:48:10;99021.13;;;4.85;100.00
61039;BME280;46919;45.816;3.104;2022-11-12T03:50:35;99028.84;;;4.88;100.00
61039;BME280;46919;45.816;3.104;2022-11-12T03:53:01;99024.63;;;4.86;100.00
61039;BME280;46919;45.816;3.104;2022-11-12T03:55:27;99020.28;;;4.85;100.00
61039;BME280;46919;45.816;3.104;2022-11-12T03:57:53;99020.44;;;4.83;100.00
61039;BME280;46919;45.816;3.104;2022-11-12T04:00:21;99022.63;;;4.88;100.00
61039;BME280;46919;45.816;3.104;2022-11-12T04:02:47;99015.94;;;4.84;100.00
61039;BME280;46919;45.816;3.104;2022-11-12T04:05:13;99018.78;;;4.82;100.00
61039;BME280;46919;45.816;3.104;2022-11-12T04:08:14;99016.03;;;4.74;100.00
61039;BME280;46919;45.816;3.104;2022-11-12T04:10:58;99022.41;;;4.73;100.00
61039;BME280;46919;45.816;3.104;2022-11-12T04:13:24;99016.88;;;4.75;100.00
61039;BME280;46919;45.816;3.104;2022-11-12T04:18:43;99028.94;;;4.79;100.00
61039;BME280;46919;45.816;3.104;2022-11-12T04:21:40;99021.81;;;4.61;100.00
61039;BME280;46919;45.816;3.104;2022-11-12T04:24:32;99020.94;;;4.52;100.00
61039;BME280;46919;45.816;3.104;2022-11-12T04:29:44;99018.28;;;4.52;100.00
61039;BME280;46919;45.816;3.104;2022-11-12T04:32:30;99022.44;;;4.55;100.00
61039;BME280;46919;45.816;3.104;2022-11-12T04:34:56;99023.94;;;4.49;100.00
61039;BME280;46919;45.816;3.104;2022-11-12T04:37:23;99017.53;;;4.42;100.00
61039;BME280;46919;45.816;3.104;2022-11-12T04:39:49;99012.91;;;4.52;100.00
61039;BME280;46919;45.816;3.104;2022-11-12T04:42:15;99006.88;;;4.50;100.00
61039;BME280;46919;45.816;3.104;2022-11-12T04:44:59;99005.34;;;4.48;100.00
61039;BME280;46919;45.816;3.104;2022-11-12T04:47:45;99004.28;;;4.67;100.00
61039;BME280;46919;45.816;3.104;2022-11-12T04:50:16;99003.63;;;4.65;100.00
61039;BME280;46919;45.816;3.104;2022-11-12T04:52:42;99013.28;;;4.58;100.00
61039;BME280;46919;45.816;3.104;2022-11-12T04:55:08;99009.03;;;4.47;100.00
61039;BME280;46919;45.816;3.104;2022-11-12T04:57:34;99008.31;;;4.37;100.00
61039;BME280;46919;45.816;3.104;2022-11-12T04:59:59;99019.47;;;4.32;100.00
61039;BME280;46919;45.816;3.104;2022-11-12T05:02:25;99018.41;;;4.25;100.00
61039;BME280;46919;45.816;3.104;2022-11-12T05:04:50;99025.09;;;4.21;100.00
61039;BME280;46919;45.816;3.104;2022-11-12T05:07:16;99021.69;;;4.18;100.00
61039;BME280;46919;45.816;3.104;2022-11-12T05:09:42;99022.78;;;4.26;100.00
61039;BME280;46919;45.816;3.104;2022-11-12T05:12:08;99023.44;;;4.28;100.00
61039;BME280;46919;45.816;3.104;2022-11-12T05:14:33;99025.59;;;4.24;100.00
61039;BME280;46919;45.816;3.104;2022-11-12T05:16:59;99023.50;;;4.36;100.00
61039;BME280;46919;45.816;3.104;2022-11-12T05:19:24;99033.47;;;4.26;100.00
61039;BME280;46919;45.816;3.104;2022-11-12T05:21:50;99027.72;;;4.12;100.00
61039;BME280;46919;45.816;3.104;2022-11-12T05:24:41;99028.47;;;4.05;100.00
61039;BME280;46919;45.816;3.104;2022-11-12T05:27:18;99038.00;;;4.07;100.00
61039;BME280;46919;45.816;3.104;2022-11-12T05:29:44;99022.09;;;4.06;100.00
61039;BME280;46919;45.816;3.104;2022-11-12T05:32:13;99029.63;;;4.02;100.00
61039;BME280;46919;45.816;3.104;2022-11-12T05:34:38;99034.91;;;3.94;100.00
61039;BME280;46919;45.816;3.104;2022-11-12T05:37:05;99038.88;;;3.90;100.00
61039;BME280;46919;45.816;3.104;2022-11-12T05:39:31;99033.50;;;3.90;100.00
61039;BME280;46919;45.816;3.104;2022-11-12T05:41:57;99035.81;;;3.85;100.00
61039;BME280;46919;45.816;3.104;2022-11-12T05:44:22;99037.97;;;3.81;100.00
61039;BME280;46919;45.816;3.104;2022-11-12T05:46:48;99035.91;;;3.75;100.00
61039;BME280;46919;45.816;3.104;2022-11-12T05:49:15;99032.56;;;3.73;100.00
61039;BME280;46919;45.816;3.104;2022-11-12T05:51:40;99030.72;;;3.73;100.00
61039;BME280;46919;45.816;3.104;2022-11-12T05:54:06;99035.44;;;3.79;100.00
61039;BME280;46919;45.816;3.104;2022-11-12T05:56:31;99022.69;;;3.73;100.00
61039;BME280;46919;45.816;3.104;2022-11-12T05:58:57;99034.38;;;3.72;100.00
61039;BME280;46919;45.816;3.104;2022-11-12T06:01:23;99027.66;;;3.68;100.00
61039;BME280;46919;45.816;3.104;2022-11-12T06:03:48;99032.00;;;3.69;100.00
61039;BME280;46919;45.816;3.104;2022-11-12T06:06:13;99028.50;;;3.69;100.00
61039;BME280;46919;45.816;3.104;2022-11-12T06:08:39;99030.34;;;3.68;100.00
61039;BME280;46919;45.816;3.104;2022-11-12T06:11:04;99025.28;;;3.65;100.00
61039;BME280;46919;45.816;3.104;2022-11-12T06:13:30;99034.28;;;3.64;100.00
61039;BME280;46919;45.816;3.104;2022-11-12T06:15:55;99033.63;;;3.62;100.00
61039;BME280;46919;45.816;3.104;2022-11-12T06:18:21;99036.28;;;3.62;100.00
61039;BME280;46919;45.816;3.104;2022-11-12T06:20:47;99036.50;;;3.69;100.00
61039;BME280;46919;45.816;3.104;2022-11-12T06:23:31;99034.00;;;3.67;100.00
61039;BME280;46919;45.816;3.104;2022-11-12T06:25:57;99032.28;;;3.66;100.00
61039;BME280;46919;45.816;3.104;2022-11-12T06:28:23;99031.09;;;3.60;100.00
61039;BME280;46919;45.816;3.104;2022-11-12T06:30:48;99042.91;;;3.58;100.00
61039;BME280;46919;45.816;3.104;2022-11-12T06:33:13;99047.28;;;3.59;100.00
61039;BME280;46919;45.816;3.104;2022-11-12T06:35:39;99049.09;;;3.58;100.00
61039;BME280;46919;45.816;3.104;2022-11-12T06:38:04;99055.75;;;3.54;100.00
61039;BME280;46919;45.816;3.104;2022-11-12T06:40:29;99053.53;;;3.50;100.00
61039;BME280;46919;45.816;3.104;2022-11-12T06:42:57;99052.63;;;3.59;100.00
61039;BME280;46919;45.816;3.104;2022-11-12T06:45:23;99058.28;;;3.56;100.00
61039;BME280;46919;45.816;3.104;2022-11-12T06:47:48;99054.06;;;3.53;100.00
61039;BME280;46919;45.816;3.104;2022-11-12T06:50:14;99053.22;;;3.53;100.00
61039;BME280;46919;45.816;3.104;2022-11-12T06:52:39;99051.84;;;3.49;100.00
61039;BME280;46919;45.816;3.104;2022-11-12T06:55:05;99056.50;;;3.47;100.00
61039;BME280;46919;45.816;3.104;2022-11-12T06:57:30;99066.22;;;3.48;100.00
61039;BME280;46919;45.816;3.104;2022-11-12T06:59:55;99063.31;;;3.59;100.00
61039;BME280;46919;45.816;3.104;2022-11-12T07:02:21;99061.63;;;3.58;100.00
61039;BME280;46919;45.816;3.104;2022-11-12T07:04:46;99050.03;;;3.67;100.00
61039;BME280;46919;45.816;3.104;2022-11-12T07:07:12;99056.13;;;3.77;100.00
61039;BME280;46919;45.816;3.104;2022-11-12T07:09:37;99055.91;;;3.71;100.00
61039;BME280;46919;45.816;3.104;2022-11-12T07:12:02;99058.72;;;3.69;100.00
61039;BME280;46919;45.816;3.104;2022-11-12T07:14:28;99051.72;;;3.68;100.00
61039;BME280;46919;45.816;3.104;2022-11-12T07:16:53;99054.78;;;3.73;100.00
61039;BME280;46919;45.816;3.104;2022-11-12T07:19:19;99060.03;;;3.83;100.00
61039;BME280;46919;45.816;3.104;2022-11-12T07:21:44;99059.94;;;3.93;100.00
61039;BME280;46919;45.816;3.104;2022-11-12T07:24:09;99065.22;;;4.03;100.00
61039;BME280;46919;45.816;3.104;2022-11-12T07:26:35;99065.16;;;4.12;100.00
61039;BME280;46919;45.816;3.104;2022-11-12T07:29:00;99068.81;;;4.11;100.00
61039;BME280;46919;45.816;3.104;2022-11-12T07:31:26;99066.09;;;4.03;100.00
61039;BME280;46919;45.816;3.104;2022-11-12T07:33:51;99060.44;;;4.06;100.00
61039;BME280;46919;45.816;3.104;2022-11-12T07:36:19;99066.88;;;4.22;100.00
61039;BME280;46919;45.816;3.104;2022-11-12T07:38:45;99059.31;;;4.35;100.00
61039;BME280;46919;45.816;3.104;2022-11-12T07:41:16;99065.03;;;4.40;100.00
61039;BME280;46919;45.816;3.104;2022-11-12T07:43:43;99060.63;;;4.57;100.00
61039;BME280;46919;45.816;3.104;2022-11-12T07:46:13;99064.38;;;4.72;100.00
61039;BME280;46919;45.816;3.104;2022-11-12T07:48:39;99075.38;;;4.87;100.00
61039;BME280;46919;45.816;3.104;2022-11-12T07:51:08;99070.00;;;4.87;100.00
61039;BME280;46919;45.816;3.104;2022-11-12T07:53:35;99068.31;;;4.86;100.00
61039;BME280;46919;45.816;3.104;2022-11-12T07:56:02;99064.84;;;4.94;100.00
61039;BME280;46919;45.816;3.104;2022-11-12T07:58:30;99071.03;;;4.95;100.00
61039;BME280;46919;45.816;3.104;2022-11-12T08:00:56;99070.56;;;4.99;100.00
61039;BME280;46919;45.816;3.104;2022-11-12T08:03:22;99068.94;;;5.06;100.00
61039;BME280;46919;45.816;3.104;2022-11-12T08:05:48;99062.13;;;5.20;100.00
61039;BME280;46919;45.816;3.104;2022-11-12T08:08:13;99067.72;;;5.35;100.00
61039;BME280;46919;45.816;3.104;2022-11-12T08:10:39;99074.44;;;5.39;100.00
61039;BME280;46919;45.816;3.104;2022-11-12T08:13:04;99069.94;;;5.48;100.00
61039;BME280;46919;45.816;3.104;2022-11-12T08:15:30;99066.28;;;5.66;100.00
61039;BME280;46919;45.816;3.104;2022-11-12T08:17:56;99067.97;;;5.75;100.00
61039;BME280;46919;45.816;3.104;2022-11-12T08:20:21;99068.00;;;5.83;100.00
61039;BME280;46919;45.816;3.104;2022-11-12T08:22:47;99068.00;;;5.91;100.00
61039;BME280;46919;45.816;3.104;2022-11-12T08:25:12;99075.94;;;6.01;100.00
61039;BME280;46919;45.816;3.104;2022-11-12T08:27:38;99074.59;;;6.13;100.00
61039;BME280;46919;45.816;3.104;2022-11-12T08:30:04;99073.09;;;6.27;100.00
61039;BME280;46919;45.816;3.104;2022-11-12T08:32:29;99062.19;;;6.37;100.00
61039;BME280;46919;45.816;3.104;2022-11-12T08:34:55;99062.84;;;6.47;100.00
61039;BME280;46919;45.816;3.104;2022-11-12T08:37:20;99059.31;;;6.55;100.00
61039;BME280;46919;45.816;3.104;2022-11-12T08:39:46;99058.28;;;6.64;100.00
61039;BME280;46919;45.816;3.104;2022-11-12T08:42:11;99059.44;;;6.78;100.00
61039;BME280;46919;45.816;3.104;2022-11-12T08:44:37;99049.34;;;6.88;100.00
61039;BME280;46919;45.816;3.104;2022-11-12T08:47:02;99059.88;;;6.98;100.00
61039;BME280;46919;45.816;3.104;2022-11-12T08:49:27;99051.78;;;7.06;100.00
61039;BME280;46919;45.816;3.104;2022-11-12T08:51:54;99050.41;;;7.19;100.00
61039;BME280;46919;45.816;3.104;2022-11-12T08:54:19;99044.28;;;7.33;100.00
61039;BME280;46919;45.816;3.104;2022-11-12T08:56:45;99053.47;;;7.47;100.00
61039;BME280;46919;45.816;3.104;2022-11-12T08:59:11;99057.25;;;7.61;100.00
61039;BME280;46919;45.816;3.104;2022-11-12T09:01:36;99050.94;;;7.77;100.00
61039;BME280;46919;45.816;3.104;2022-11-12T09:04:02;99049.69;;;7.88;100.00
61039;BME280;46919;45.816;3.104;2022-11-12T09:06:27;99049.25;;;7.99;100.00
61039;BME280;46919;45.816;3.104;2022-11-12T09:08:52;99056.25;;;8.08;100.00
61039;BME280;46919;45.816;3.104;2022-11-12T09:11:18;99044.22;;;8.19;100.00
61039;BME280;46919;45.816;3.104;2022-11-12T09:13:43;99039.59;;;8.28;100.00
61039;BME280;46919;45.816;3.104;2022-11-12T09:16:09;99042.06;;;8.38;100.00
61039;BME280;46919;45.816;3.104;2022-11-12T09:18:35;99050.56;;;8.49;100.00
61039;BME280;46919;45.816;3.104;2022-11-12T09:23:27;99040.94;;;8.70;100.00
61039;BME280;46919;45.816;3.104;2022-11-12T09:25:54;99040.47;;;8.81;100.00
61039;BME280;46919;45.816;3.104;2022-11-12T09:28:20;99033.97;;;8.91;100.00
61039;BME280;46919;45.816;3.104;2022-11-12T09:30:47;99028.47;;;8.99;100.00
61039;BME280;46919;45.816;3.104;2022-11-12T09:33:14;99033.41;;;9.10;100.00
61039;BME280;46919;45.816;3.104;2022-11-12T09:35:40;99028.56;;;9.20;100.00
61039;BME280;46919;45.816;3.104;2022-11-12T09:38:05;99038.88;;;9.32;100.00
61039;BME280;46919;45.816;3.104;2022-11-12T09:43:50;99039.66;;;9.62;100.00
61039;BME280;46919;45.816;3.104;2022-11-12T09:47:32;99036.25;;;9.75;100.00
61039;BME280;46919;45.816;3.104;2022-11-12T09:49:35;99038.16;;;9.96;100.00
61039;BME280;46919;45.816;3.104;2022-11-12T09:52:08;99039.09;;;10.10;100.00
61039;BME280;46919;45.816;3.104;2022-11-12T09:54:36;99028.56;;;10.15;100.00
61039;BME280;46919;45.816;3.104;2022-11-12T09:57:02;99026.78;;;10.29;100.00
61039;BME280;46919;45.816;3.104;2022-11-12T09:59:30;99023.66;;;10.47;100.00
61039;BME280;46919;45.816;3.104;2022-11-12T10:02:21;99023.75;;;10.60;100.00
61039;BME280;46919;45.816;3.104;2022-11-12T10:10:18;99026.81;;;10.85;100.00
61039;BME280;46919;45.816;3.104;2022-11-12T10:15:40;99026.19;;;11.18;100.00
61039;BME280;46919;45.816;3.104;2022-11-12T10:21:48;99015.50;;;11.52;100.00
61039;BME280;46919;45.816;3.104;2022-11-12T10:24:19;99005.56;;;11.72;98.41
61039;BME280;46919;45.816;3.104;2022-11-12T10:26:47;99008.88;;;11.81;97.73
61039;BME280;46919;45.816;3.104;2022-11-12T10:32:02;98996.03;;;11.96;96.02
61039;BME280;46919;45.816;3.104;2022-11-12T10:34:28;99000.00;;;12.07;95.23
61039;BME280;46919;45.816;3.104;2022-11-12T10:37:12;99000.63;;;12.16;95.06
61039;BME280;46919;45.816;3.104;2022-11-12T10:39:42;98996.69;;;12.19;94.55
61039;BME280;46919;45.816;3.104;2022-11-12T10:42:13;98990.63;;;12.23;93.67
61039;BME280;46919;45.816;3.104;2022-11-12T10:44:39;98977.69;;;12.32;92.84
61039;BME280;46919;45.816;3.104;2022-11-12T10:47:17;98980.22;;;12.40;92.20
61039;BME280;46919;45.816;3.104;2022-11-12T10:52:38;98977.69;;;12.52;91.91
61039;BME280;46919;45.816;3.104;2022-11-12T10:55:19;98966.81;;;12.72;89.36
61039;BME280;46919;45.816;3.104;2022-11-12T10:57:45;98968.22;;;12.88;88.66
61039;BME280;46919;45.816;3.104;2022-11-12T11:02:36;98961.84;;;13.14;87.18
61039;BME280;46919;45.816;3.104;2022-11-12T11:05:37;98960.75;;;13.29;87.11
61039;BME280;46919;45.816;3.104;2022-11-12T11:08:12;98954.47;;;13.35;86.98
61039;BME280;46919;45.816;3.104;2022-11-12T11:10:38;98954.06;;;13.38;85.82
61039;BME280;46919;45.816;3.104;2022-11-12T11:16:00;98933.13;;;13.45;84.52
61039;BME280;46919;45.816;3.104;2022-11-12T11:18:32;98936.06;;;13.44;85.75
61039;BME280;46919;45.816;3.104;2022-11-12T11:32:13;98924.91;;;14.59;79.72
61039;BME280;46919;45.816;3.104;2022-11-12T11:34:43;98921.31;;;14.65;78.49
61039;BME280;46919;45.816;3.104;2022-11-12T11:37:28;98920.91;;;14.62;77.69
61039;BME280;46919;45.816;3.104;2022-11-12T11:40:18;98908.41;;;14.54;76.38
61039;BME280;46919;45.816;3.104;2022-11-12T11:50:54;98897.69;;;15.15;74.02
61039;BME280;46919;45.816;3.104;2022-11-12T11:56:12;98892.59;;;15.18;73.00
61039;BME280;46919;45.816;3.104;2022-11-12T11:58:46;98892.50;;;15.25;73.64
61039;BME280;46919;45.816;3.104;2022-11-12T12:06:31;98864.50;;;15.79;64.65
61039;BME280;46919;45.816;3.104;2022-11-12T12:09:27;98878.63;;;15.99;70.73
61039;BME280;46919;45.816;3.104;2022-11-12T12:14:51;98856.34;;;16.26;69.27
61039;BME280;46919;45.816;3.104;2022-11-12T12:20:19;98857.72;;;16.64;67.50
61039;BME280;46919;45.816;3.104;2022-11-12T12:22:50;98843.44;;;16.86;65.53
61039;BME280;46919;45.816;3.104;2022-11-12T12:25:32;98838.84;;;17.03;64.31
61039;BME280;46919;45.816;3.104;2022-11-12T12:28:26;98829.28;;;17.17;62.39
61039;BME280;46919;45.816;3.104;2022-11-12T12:31:03;98841.06;;;17.35;63.40
61039;BME280;46919;45.816;3.104;2022-11-12T12:33:34;98827.41;;;17.35;63.26
61039;BME280;46919;45.816;3.104;2022-11-12T12:36:06;98824.94;;;17.33;62.50
61039;BME280;46919;45.816;3.104;2022-11-12T12:38:52;98818.72;;;17.38;60.20
61039;BME280;46919;45.816;3.104;2022-11-12T12:41:26;98814.53;;;17.47;60.82
61039;BME280;46919;45.816;3.104;2022-11-12T12:44:01;98821.75;;;17.53;61.53
61039;BME280;46919;45.816;3.104;2022-11-12T12:46:30;98812.56;;;17.77;60.59
61039;BME280;46919;45.816;3.104;2022-11-12T12:48:57;98815.69;;;17.85;60.60
61039;BME280;46919;45.816;3.104;2022-11-12T12:51:28;98804.19;;;17.83;60.63
61039;BME280;46919;45.816;3.104;2022-11-12T12:53:54;98805.00;;;17.84;60.20
61039;BME280;46919;45.816;3.104;2022-11-12T12:58:48;98790.53;;;18.00;58.91
61039;BME280;46919;45.816;3.104;2022-11-12T13:19:29;98773.00;;;18.18;58.43
61039;BME280;46919;45.816;3.104;2022-11-12T13:32:54;98765.00;;;17.95;59.00
61039;BME280;46919;45.816;3.104;2022-11-12T13:40:42;98767.09;;;18.09;61.03
61039;BME280;46919;45.816;3.104;2022-11-12T13:53:58;98762.66;;;17.86;64.05
61039;BME280;46919;45.816;3.104;2022-11-12T13:58:53;98759.03;;;17.98;64.18
61039;BME280;46919;45.816;3.104;2022-11-12T14:01:20;98759.88;;;17.81;65.52
61039;BME280;46919;45.816;3.104;2022-11-12T14:03:49;98756.63;;;17.67;66.69
61039;BME280;46919;45.816;3.104;2022-11-12T14:06:36;98757.22;;;17.69;66.11
61039;BME280;46919;45.816;3.104;2022-11-12T14:15:00;98754.22;;;18.05;65.11
61039;BME280;46919;45.816;3.104;2022-11-12T14:17:18;98753.56;;;17.98;65.28
61039;BME280;46919;45.816;3.104;2022-11-12T14:22:55;98746.25;;;18.03;64.89
61039;BME280;46919;45.816;3.104;2022-11-12T14:25:23;98740.59;;;18.10;65.13
61039;BME280;46919;45.816;3.104;2022-11-12T14:27:50;98749.88;;;18.09;65.04
61039;BME280;46919;45.816;3.104;2022-11-12T14:32:45;98744.94;;;17.89;66.15
61039;BME280;46919;45.816;3.104;2022-11-12T14:35:34;98743.84;;;17.73;67.07
61039;BME280;46919;45.816;3.104;2022-11-12T14:40:43;98746.59;;;17.90;66.50
61039;BME280;46919;45.816;3.104;2022-11-12T14:43:19;98748.09;;;17.98;66.76
61039;BME280;46919;45.816;3.104;2022-11-12T14:45:47;98750.38;;;18.06;66.66
61039;BME280;46919;45.816;3.104;2022-11-12T14:48:13;98747.72;;;18.11;66.12
61039;BME280;46919;45.816;3.104;2022-11-12T14:50:38;98746.88;;;18.10;66.36
61039;BME280;46919;45.816;3.104;2022-11-12T14:55:42;98740.59;;;18.10;66.12
61039;BME280;46919;45.816;3.104;2022-11-12T14:58:13;98740.44;;;18.00;66.31
61039;BME280;46919;45.816;3.104;2022-11-12T15:00:45;98742.31;;;17.94;66.57
61039;BME280;46919;45.816;3.104;2022-11-12T15:03:14;98736.88;;;17.82;66.59
61039;BME280;46919;45.816;3.104;2022-11-12T15:06:06;98729.63;;;17.71;67.20
61039;BME280;46919;45.816;3.104;2022-11-12T15:08:37;98734.19;;;17.65;67.65
61039;BME280;46919;45.816;3.104;2022-11-12T15:13:47;98732.13;;;17.38;68.46
61039;BME280;46919;45.816;3.104;2022-11-12T15:16:25;98730.31;;;17.10;70.27
61039;BME280;46919;45.816;3.104;2022-11-12T15:21:50;98732.91;;;16.88;71.22
61039;BME280;46919;45.816;3.104;2022-11-12T15:24:19;98732.94;;;16.76;72.39
61039;BME280;46919;45.816;3.104;2022-11-12T15:26:50;98726.03;;;16.57;73.92
61039;BME280;46919;45.816;3.104;2022-11-12T15:31:51;98731.84;;;16.20;76.90